Dora, Alabama
Current Conditions -  °F | °C
As of 11:35 PM on Saturday 22 Nov 2014 (Local Time) from KJFX Reporting Station
Overcast Overcast  
Wind Chill: 61°   Ceiling: 2400
Heat Index: 61°   Visibility: 10mi
Dew Point: 52°   Wind: 5mph
Humidity: 72%   Direction: 130°SE
Pressure: 30.06"   Gusts: NA
Location:  33.73°N, 87.09°W
Report Text: KJFX 230535Z AUTO 13004KT 10SM OVC024 16/11 A3006 RMK A02 P-128
Loading
Personal Weather Stations






























Interactive Weather Map New forecast layout! Learn more

10-Day Weather Forecast

Advertisements
Track Severe Weather on mobile